Time;durP1;ratioP1;P1;durP2;ratioP2;P2;SDS_P1;SDS_P2;PMS_P1;PMS_P2;Temp;Humidity;BMP_temperature;BMP_pressure;BME280_temperature;BME280_humidity;BME280_pressure;Samples;Min_cycle;Max_cycle;Signal;HPM_P1;HPM_P2
2023/03/07 00:04:34;;;;;;;56.80;30.00;;;;;;;-0.19;82.02;97246.95;434120;1256;108125;-39
2023/03/07 00:14:42;;;;;;;45.00;23.10;;;;;;;-0.18;81.99;97238.44;434120;1261;97937;-40
2023/03/07 00:24:49;;;;;;;41.90;24.50;;;;;;;-0.08;82.22;97236.45;434066;1255;107452;-39
2023/03/07 00:34:57;;;;;;;47.80;26.50;;;;;;;-0.10;82.00;97238.28;434187;1260;96658;-40
2023/03/07 00:45:04;;;;;;;53.10;26.40;;;;;;;-0.30;82.16;97229.91;434181;1257;97884;-41
2023/03/07 00:55:11;;;;;;;57.50;25.90;;;;;;;-0.49;82.10;97223.21;434100;1261;109007;-39
2023/03/07 01:05:19;;;;;;;55.30;27.30;;;;;;;-0.73;82.19;97219.67;434327;1260;108173;-39
2023/03/07 01:15:26;;;;;;;60.80;28.00;;;;;;;-0.92;82.51;97211.16;434156;1261;97887;-39
2023/03/07 01:25:36;;;;;;;50.70;30.10;;;;;;;-0.91;82.54;97207.96;434027;1255;97883;-41
2023/03/07 01:35:43;;;;;;;54.20;28.70;;;;;;;-0.81;82.62;97203.50;434118;1256;108295;-39
2023/03/07 01:46:25;;;;;;;37.20;23.60;;;;;;;-0.62;82.75;97198.00;435188;1260;97456;-39
2023/03/07 01:56:33;;;;;;;60.40;31.00;;;;;;;-0.50;82.93;97190.61;434140;1261;109358;-39
2023/03/07 02:06:40;;;;;;;61.30;33.10;;;;;;;-0.45;82.96;97179.90;434161;1261;108595;-39
2023/03/07 02:16:48;;;;;;;67.90;35.00;;;;;;;-0.44;83.21;97173.54;434151;1261;96617;-41
2023/03/07 02:26:56;;;;;;;65.20;31.20;;;;;;;-0.44;83.14;97171.19;435277;1254;96680;-40
2023/03/07 02:37:08;;;;;;;62.50;31.90;;;;;;;-0.47;83.14;97172.89;435188;1256;110750;-40
2023/03/07 02:47:15;;;;;;;54.40;34.40;;;;;;;-0.39;83.27;97165.77;435215;1253;108483;-42
2023/03/07 02:57:26;;;;;;;53.60;30.70;;;;;;;-0.23;83.21;97161.68;435219;1253;97469;-38
2023/03/07 03:07:34;;;;;;;48.30;26.40;;;;;;;-0.10;83.29;97156.14;435324;1256;110444;-39
2023/03/07 03:17:41;;;;;;;46.30;25.70;;;;;;;-0.02;83.45;97152.36;435226;1253;108138;-40
2023/03/07 03:27:49;;;;;;;57.50;31.80;;;;;;;-0.00;83.57;97151.84;435286;1256;97900;-41
2023/03/07 03:37:56;;;;;;;66.00;34.40;;;;;;;-0.01;83.69;97156.04;434695;1256;576815;-39
2023/03/07 03:48:03;;;;;;;58.90;32.20;;;;;;;-0.02;83.61;97155.31;435186;1256;107677;-39
2023/03/07 03:58:11;;;;;;;57.00;31.40;;;;;;;-0.08;83.69;97150.66;435168;1256;97902;-40
2023/03/07 04:08:21;;;;;;;59.40;34.10;;;;;;;-0.07;83.69;97152.83;435570;1256;97860;-40
2023/03/07 04:18:27;;;;;;;52.30;32.40;;;;;;;0.06;83.91;97148.21;437049;1256;108156;-40
2023/03/07 04:28:49;;;;;;;50.40;29.90;;;;;;;0.26;83.81;97151.61;435161;1256;97874;-40
2023/03/07 04:38:56;;;;;;;47.20;26.20;;;;;;;0.33;83.96;97147.02;435186;1253;109150;-40
2023/03/07 04:49:04;;;;;;;62.30;31.40;;;;;;;0.32;84.25;97145.02;435100;1256;108345;-38
2023/03/07 04:59:11;;;;;;;69.40;32.60;;;;;;;0.30;84.25;97143.66;435171;1256;97899;-40
2023/03/07 05:09:18;;;;;;;67.60;35.10;;;;;;;0.25;84.57;97139.54;436229;1256;112928;-39
2023/03/07 05:19:25;;;;;;;59.50;34.50;;;;;;;0.21;84.36;97124.25;435980;1266;108533;-38
2023/03/07 05:29:30;;;;;;;59.40;30.90;;;;;;;0.24;84.36;97128.05;435256;1256;97909;-40
2023/03/07 05:39:37;;;;;;;54.90;31.10;;;;;;;0.34;84.48;97131.09;435255;1253;109200;-39
2023/03/07 05:49:44;;;;;;;56.30;29.30;;;;;;;0.36;84.24;97124.41;435181;1253;107255;-41
2023/03/07 05:59:52;;;;;;;80.10;37.60;;;;;;;0.32;84.45;97120.17;435210;1266;96657;-40
2023/03/07 06:09:59;;;;;;;77.50;38.90;;;;;;;0.32;84.64;97114.13;435733;1256;111428;-39
2023/03/07 06:20:06;;;;;;;93.20;41.80;;;;;;;0.52;84.81;97119.15;436303;1256;107559;-40
2023/03/07 06:30:14;;;;;;;82.80;40.90;;;;;;;0.71;84.68;97115.90;435142;1254;106175;-39
2023/03/07 06:40:21;;;;;;;64.80;36.10;;;;;;;1.26;84.77;97106.17;435116;1253;96639;-40
2023/03/07 06:50:28;;;;;;;48.40;27.40;;;;;;;2.00;84.75;97104.05;435170;1256;107354;-40
2023/03/07 07:00:41;;;;;;;53.70;29.10;;;;;;;2.22;84.41;97102.70;435298;1256;97466;-40
2023/03/07 07:10:48;;;;;;;61.20;33.50;;;;;;;2.40;84.34;97092.31;435099;1257;110480;-40
2023/03/07 07:31:02;;;;;;;49.80;28.60;;;;;;;2.91;84.10;97074.52;435218;1254;97877;-40
2023/03/07 07:41:09;;;;;;;26.80;17.50;;;;;;;3.44;83.87;97066.09;435211;1254;96627;-40
2023/03/07 07:51:17;;;;;;;37.10;21.90;;;;;;;4.03;83.49;97060.27;435164;1264;107909;-40
2023/03/07 08:01:24;;;;;;;42.40;22.20;;;;;;;4.48;83.33;97052.45;435131;1257;96643;-40
2023/03/07 08:11:30;;;;;;;43.00;23.80;;;;;;;4.75;81.96;97036.88;435159;1257;97866;-40
2023/03/07 08:21:37;;;;;;;38.10;20.40;;;;;;;5.20;81.20;97032.39;435221;1257;109975;-40
2023/03/07 08:31:44;;;;;;;36.50;21.50;;;;;;;4.95;79.93;97032.09;435302;1253;107668;-41
2023/03/07 08:41:54;;;;;;;33.60;20.10;;;;;;;5.37;80.21;97031.17;435243;1257;97488;-40
2023/03/07 08:52:01;;;;;;;37.10;19.70;;;;;;;5.58;79.25;97028.46;435203;1257;96677;-40
2023/03/07 09:02:09;;;;;;;33.00;17.90;;;;;;;5.52;76.88;97019.83;435283;1257;109420;-40
2023/03/07 09:12:17;;;;;;;28.10;16.70;;;;;;;5.70;77.21;97018.02;435283;1258;106732;-40
2023/03/07 09:22:24;;;;;;;30.80;17.50;;;;;;;5.67;76.24;97006.33;435287;1256;97474;-40
2023/03/07 09:32:32;;;;;;;27.10;16.20;;;;;;;5.69;75.04;96990.40;435152;1257;97757;-39
2023/03/07 09:42:39;;;;;;;33.00;18.70;;;;;;;5.93;74.94;96972.92;435323;1256;109084;-40
2023/03/07 09:52:46;;;;;;;32.30;17.40;;;;;;;6.16;74.88;96962.08;435269;1258;107943;-40
2023/03/07 10:02:54;;;;;;;45.30;17.60;;;;;;;6.41;73.82;96941.96;435269;1258;97469;-40
2023/03/07 10:24:04;;;;;;;23.80;15.10;;;;;;;6.61;71.94;96925.82;435160;1258;109583;-41
2023/03/07 10:34:12;;;;;;;29.80;18.50;;;;;;;6.75;70.84;96913.84;435127;1254;109510;-40
2023/03/07 10:44:34;;;;;;;24.60;16.00;;;;;;;6.75;69.74;96896.46;435151;1257;97861;-41
2023/03/07 10:54:42;;;;;;;19.80;13.30;;;;;;;7.12;68.87;96886.72;435204;1257;97850;-40
2023/03/07 11:14:56;;;;;;;20.90;12.80;;;;;;;6.72;65.34;96870.89;435194;1257;97871;-40
2023/03/07 11:25:06;;;;;;;24.70;14.70;;;;;;;6.53;65.59;96872.54;435215;1257;97908;-39
2023/03/07 11:35:12;;;;;;;27.30;14.80;;;;;;;6.32;65.40;96862.17;435280;1258;97865;-42
2023/03/07 11:45:24;;;;;;;22.10;13.50;;;;;;;6.16;65.36;96845.77;435284;1257;109570;-40
2023/03/07 11:55:29;;;;;;;21.70;15.00;;;;;;;6.23;65.26;96836.77;435234;1254;108410;-39
2023/03/07 12:05:38;;;;;;;26.00;14.80;;;;;;;6.30;64.40;96828.34;435227;1254;97893;-42
2023/03/07 12:15:44;;;;;;;20.80;13.90;;;;;;;6.58;64.85;96822.80;435238;1253;97466;-40
2023/03/07 12:25:55;;;;;;;27.80;14.90;;;;;;;6.87;64.72;96814.83;435338;1256;111111;-41
2023/03/07 12:36:08;;;;;;;25.50;14.80;;;;;;;6.79;63.58;96798.15;435199;1256;106848;-40
2023/03/07 12:46:15;;;;;;;22.30;12.60;;;;;;;6.74;64.22;96793.02;435215;1257;97866;-40
2023/03/07 12:56:26;;;;;;;21.80;12.70;;;;;;;6.83;62.24;96783.26;435245;1257;97489;-39
2023/03/07 13:06:38;;;;;;;21.30;12.80;;;;;;;6.71;62.57;96793.77;435401;1257;110120;-41
2023/03/07 13:16:46;;;;;;;27.40;14.50;;;;;;;6.63;63.11;96789.44;435167;1256;107219;-40
2023/03/07 13:26:55;;;;;;;28.70;15.70;;;;;;;6.43;62.96;96779.77;435284;1253;97921;-41
2023/03/07 13:37:39;;;;;;;24.10;13.70;;;;;;;6.32;63.68;96778.70;435082;1254;97861;-41
2023/03/07 13:47:44;;;;;;;19.80;12.40;;;;;;;6.22;63.32;96779.08;435286;1256;110539;-41
2023/03/07 13:57:52;;;;;;;24.30;12.90;;;;;;;6.19;63.60;96764.56;435294;1252;97451;-40
2023/03/07 14:08:00;;;;;;;24.70;14.20;;;;;;;6.09;63.58;96758.57;435194;1256;97877;-41
2023/03/07 14:18:15;;;;;;;25.20;15.70;;;;;;;5.93;63.84;96751.05;435327;1256;97898;-41
2023/03/07 14:38:32;;;;;;;23.40;13.70;;;;;;;5.81;64.31;96748.84;435214;1256;107638;-40
2023/03/07 14:48:46;;;;;;;36.60;17.70;;;;;;;5.78;64.40;96746.48;435278;1256;96664;-40
2023/03/07 14:58:53;;;;;;;28.10;13.20;;;;;;;5.88;64.18;96744.21;435283;1253;97880;-40
2023/03/07 15:09:07;;;;;;;33.90;15.90;;;;;;;5.94;63.78;96728.98;435266;1256;109942;-40
2023/03/07 15:19:21;;;;;;;33.40;16.90;;;;;;;5.85;63.94;96719.88;435326;1253;109545;-39
2023/03/07 15:29:31;;;;;;;28.20;13.80;;;;;;;5.69;63.79;96713.45;435369;1254;96712;-41
2023/03/07 15:39:39;;;;;;;27.10;15.40;;;;;;;5.58;63.95;96715.05;434940;1256;432326;-41
2023/03/07 15:49:49;;;;;;;29.10;14.20;;;;;;;5.45;64.38;96718.46;435224;1256;110354;-40
2023/03/07 15:59:58;;;;;;;30.90;17.80;;;;;;;5.33;64.44;96708.77;435296;1253;106720;-40
2023/03/07 16:10:04;;;;;;;40.10;21.00;;;;;;;5.19;64.84;96695.06;435333;1256;97874;-40
2023/03/07 16:20:13;;;;;;;32.20;16.00;;;;;;;5.01;65.40;96686.66;435301;1253;96996;-40
2023/03/07 16:30:24;;;;;;;41.20;21.10;;;;;;;4.87;65.43;96688.81;435301;1256;109621;-40
2023/03/07 16:40:33;;;;;;;43.40;22.80;;;;;;;4.73;65.94;96690.86;435215;1256;106376;-40
2023/03/07 16:50:40;;;;;;;37.50;20.70;;;;;;;4.62;66.29;96692.48;435281;1253;98574;-40
2023/03/07 17:00:48;;;;;;;39.00;20.30;;;;;;;4.55;66.49;96695.78;435318;1252;111222;-40
2023/03/07 17:10:56;;;;;;;52.90;27.60;;;;;;;4.50;66.73;96694.44;435167;1256;108159;-40
2023/03/07 17:21:03;;;;;;;33.40;16.60;;;;;;;4.50;66.78;96690.36;435183;1253;99310;-39
2023/03/07 17:31:10;;;;;;;41.40;21.80;;;;;;;4.56;66.96;96698.88;435305;1256;110884;-38
2023/03/07 17:51:23;;;;;;;40.80;20.30;;;;;;;4.56;67.35;96701.23;435228;1256;99266;-39
2023/03/07 18:01:29;;;;;;;32.80;16.50;;;;;;;4.58;67.31;96695.40;435268;1253;108154;-39
2023/03/07 18:11:36;;;;;;;26.80;15.90;;;;;;;4.71;67.18;96692.34;435354;1253;99250;-40
2023/03/07 18:21:44;;;;;;;33.40;17.80;;;;;;;4.78;66.99;96689.80;435244;1252;110643;-40
2023/03/07 18:31:52;;;;;;;28.50;14.10;;;;;;;4.79;67.06;96699.08;435242;1256;108541;-40
2023/03/07 18:41:59;;;;;;;19.90;11.30;;;;;;;4.82;67.31;96698.38;435216;1256;99208;-42
2023/03/07 18:52:06;;;;;;;30.50;16.10;;;;;;;4.86;67.83;96712.02;435223;1255;112062;-40
2023/03/07 19:02:13;;;;;;;37.10;20.70;;;;;;;4.51;68.95;96720.58;435225;1253;108323;-40
2023/03/07 19:12:21;;;;;;;27.70;16.60;;;;;;;4.19;69.79;96710.14;435301;1253;97976;-41
2023/03/07 19:22:28;;;;;;;34.80;17.30;;;;;;;4.14;70.33;96689.98;435178;1253;106851;-40
2023/03/07 19:32:36;;;;;;;37.90;23.40;;;;;;;4.14;70.89;96675.38;435308;1253;99196;-40
2023/03/07 19:42:43;;;;;;;47.40;25.20;;;;;;;4.11;71.31;96672.34;435247;1253;112192;-38
2023/03/07 19:52:50;;;;;;;55.70;26.80;;;;;;;4.07;71.59;96669.46;435256;1256;107245;-40
2023/03/07 20:02:58;;;;;;;35.80;21.10;;;;;;;4.12;71.79;96668.98;435104;1256;99198;-40
2023/03/07 20:13:06;;;;;;;31.40;18.90;;;;;;;4.26;72.07;96674.27;435131;1256;107038;-41
2023/03/07 20:23:14;;;;;;;42.90;23.30;;;;;;;4.36;72.27;96672.02;435160;1256;98213;-41
2023/03/07 20:33:21;;;;;;;44.80;25.10;;;;;;;4.34;72.51;96671.77;435179;1253;111663;-40
2023/03/07 20:43:28;;;;;;;49.90;24.80;;;;;;;4.28;72.77;96675.14;436443;1256;106778;-39
2023/03/07 20:53:36;;;;;;;32.10;17.80;;;;;;;4.27;73.02;96673.30;435186;1256;99237;-40
2023/03/07 21:03:43;;;;;;;22.00;14.00;;;;;;;4.32;73.34;96677.63;435207;1252;110519;-42
2023/03/07 21:13:50;;;;;;;37.30;19.30;;;;;;;4.29;73.64;96676.15;435086;1253;108503;-40
2023/03/07 21:23:59;;;;;;;33.00;19.60;;;;;;;4.16;74.02;96679.48;435194;1256;99321;-40
2023/03/07 21:34:08;;;;;;;38.80;21.00;;;;;;;4.03;74.14;96675.66;435100;1257;112205;-40
2023/03/07 21:44:16;;;;;;;24.50;15.90;;;;;;;3.99;74.34;96675.42;435184;1256;107036;-39
2023/03/07 21:54:23;;;;;;;26.80;15.70;;;;;;;4.00;74.57;96675.39;436941;1253;98014;-39
2023/03/07 22:04:29;;;;;;;33.50;19.90;;;;;;;3.98;74.72;96674.75;438949;1256;108622;-41
2023/03/07 22:14:37;;;;;;;37.20;20.20;;;;;;;3.90;75.11;96676.23;438783;1256;98734;-42
2023/03/07 22:24:44;;;;;;;26.90;16.70;;;;;;;3.88;75.17;96684.25;439234;1254;99412;-41
2023/03/07 22:34:51;;;;;;;25.10;14.90;;;;;;;3.93;75.50;96679.46;438710;1256;107219;-41
2023/03/07 22:44:58;;;;;;;31.50;18.90;;;;;;;3.96;75.67;96675.48;439020;1252;99216;-41
2023/03/07 22:55:06;;;;;;;40.40;21.00;;;;;;;3.86;75.96;96683.89;438910;1256;111831;-40
2023/03/07 23:05:14;;;;;;;40.80;23.90;;;;;;;3.74;76.65;96684.90;437917;1256;109020;-39
2023/03/07 23:25:27;;;;;;;24.20;16.70;;;;;;;3.77;76.81;96691.34;435620;1253;106754;-40
2023/03/07 23:35:33;;;;;;;24.80;15.60;;;;;;;3.82;77.12;96696.84;437403;1256;98131;-40
2023/03/07 23:45:41;;;;;;;38.20;19.90;;;;;;;3.77;77.57;96699.04;436540;1256;110682;-40
2023/03/07 23:55:48;;;;;;;40.80;22.50;;;;;;;3.64;77.70;96701.64;436570;1256;106963;-40
